createdAt,value
2023-02-12T00:01:23.160Z,7.70
2023-02-12T00:03:50.814Z,7.88
2023-02-12T00:06:17.717Z,7.90
2023-02-12T00:08:44.743Z,7.96
2023-02-12T00:11:17.345Z,7.97
2023-02-12T00:13:44.721Z,8.08
2023-02-12T00:16:14.878Z,8.08
2023-02-12T00:18:42.572Z,7.91
2023-02-12T00:21:09.704Z,7.18
2023-02-12T00:23:38.379Z,6.99
2023-02-12T00:26:07.485Z,7.34
2023-02-12T00:28:34.582Z,6.68
2023-02-12T00:31:11.993Z,6.95
2023-02-12T00:33:39.346Z,7.43
2023-02-12T00:36:10.034Z,7.43
2023-02-12T00:38:36.910Z,7.36
2023-02-12T00:41:04.265Z,7.48
2023-02-12T00:43:32.338Z,5.90
2023-02-12T00:45:59.520Z,6.07
2023-02-12T00:48:26.792Z,6.22
2023-02-12T00:50:53.675Z,6.59
2023-02-12T00:53:20.836Z,6.69
2023-02-12T00:55:47.717Z,6.53
2023-02-12T00:58:16.153Z,6.45
2023-02-12T01:00:44.890Z,6.53
2023-02-12T01:03:11.924Z,6.64
2023-02-12T01:05:38.826Z,7.00
2023-02-12T01:08:05.837Z,7.34
2023-02-12T01:10:33.146Z,6.14
2023-02-12T01:13:00.124Z,6.32
2023-02-12T01:15:26.970Z,6.99
2023-02-12T01:17:54.595Z,7.28
2023-02-12T01:20:24.539Z,7.14
2023-02-12T01:22:52.047Z,7.10
2023-02-12T01:25:20.958Z,7.18
2023-02-12T01:27:48.063Z,7.40
2023-02-12T01:30:15.857Z,7.27
2023-02-12T01:32:44.219Z,7.48
2023-02-12T01:35:11.288Z,7.16
2023-02-12T01:37:42.394Z,6.97
2023-02-12T01:40:20.032Z,7.43
2023-02-12T01:42:46.899Z,7.58
2023-02-12T01:45:13.934Z,7.57
2023-02-12T01:47:42.475Z,7.40
2023-02-12T01:50:13.461Z,7.39
2023-02-12T01:52:44.190Z,7.24
2023-02-12T01:55:12.034Z,7.60
2023-02-12T01:57:43.020Z,7.63
2023-02-12T02:00:17.777Z,7.65
2023-02-12T02:02:52.974Z,7.71
2023-02-12T02:05:39.147Z,7.58
2023-02-12T02:08:07.086Z,7.55
2023-02-12T02:10:33.953Z,7.66
2023-02-12T02:13:20.111Z,7.35
2023-02-12T02:15:50.874Z,7.69
2023-02-12T02:18:35.380Z,7.59
2023-02-12T02:21:18.259Z,7.36
2023-02-12T02:24:16.259Z,6.75
2023-02-12T02:26:48.947Z,6.51
2023-02-12T02:29:40.752Z,7.28
2023-02-12T02:32:13.457Z,6.52
2023-02-12T02:35:06.339Z,6.99
2023-02-12T02:37:58.208Z,6.98
2023-02-12T02:40:31.941Z,7.12
2023-02-12T02:43:07.903Z,7.23
2023-02-12T02:45:43.406Z,7.41
2023-02-12T02:48:17.795Z,7.71
2023-02-12T02:50:52.889Z,7.97
2023-02-12T02:53:30.348Z,7.68
2023-02-12T02:56:00.332Z,7.74
2023-02-12T02:58:35.963Z,7.80
2023-02-12T03:01:18.991Z,7.55
2023-02-12T03:03:55.118Z,8.00
2023-02-12T03:06:32.912Z,7.35
2023-02-12T03:09:11.659Z,7.68
2023-02-12T03:11:38.630Z,7.18
2023-02-12T03:14:10.194Z,7.74
2023-02-12T03:16:59.870Z,7.63
2023-02-12T03:19:31.086Z,7.46
2023-02-12T03:22:04.736Z,7.57
2023-02-12T03:24:40.814Z,7.89
2023-02-12T03:27:13.566Z,7.57
2023-02-12T03:29:40.624Z,7.66
2023-02-12T03:32:21.781Z,7.75
2023-02-12T03:35:04.484Z,7.90
2023-02-12T03:37:44.074Z,7.24
2023-02-12T03:40:23.852Z,7.49
2023-02-12T03:42:53.491Z,7.34
2023-02-12T03:45:35.496Z,7.47
2023-02-12T03:48:13.759Z,7.46
2023-02-12T03:50:55.659Z,7.36
2023-02-12T03:53:22.820Z,7.27
2023-02-12T03:55:53.552Z,6.90
2023-02-12T03:58:26.052Z,6.83
2023-02-12T04:00:53.406Z,7.24
2023-02-12T04:03:20.841Z,7.25
2023-02-12T04:05:47.833Z,7.55
2023-02-12T04:08:14.852Z,7.35
2023-02-12T04:11:01.838Z,7.35
2023-02-12T04:14:15.384Z,7.76
2023-02-12T04:16:51.943Z,7.59
2023-02-12T04:19:29.777Z,7.65
2023-02-12T04:22:26.386Z,7.09
2023-02-12T04:25:04.934Z,7.26
2023-02-12T04:27:57.004Z,6.71
2023-02-12T04:30:39.121Z,7.16
2023-02-12T04:33:11.006Z,7.41
2023-02-12T04:36:03.262Z,7.29
2023-02-12T04:38:40.933Z,6.88
2023-02-12T04:41:09.790Z,6.76
2023-02-12T04:43:37.997Z,6.39
2023-02-12T04:46:07.346Z,6.60
2023-02-12T04:48:36.336Z,7.15
2023-02-12T04:51:03.390Z,7.29
2023-02-12T04:53:30.300Z,6.71
2023-02-12T04:55:57.515Z,7.49
2023-02-12T04:58:24.543Z,6.89
2023-02-12T05:00:53.855Z,7.19
2023-02-12T05:03:20.801Z,6.40
2023-02-12T05:05:47.675Z,6.92
2023-02-12T05:08:14.508Z,7.11
2023-02-12T05:10:42.300Z,7.00
2023-02-12T05:13:09.239Z,6.57
2023-02-12T05:15:38.614Z,6.83
2023-02-12T05:18:05.780Z,6.54
2023-02-12T05:20:32.700Z,7.01
2023-02-12T05:22:59.670Z,6.68
2023-02-12T05:25:26.872Z,6.35
2023-02-12T05:27:53.769Z,6.43
2023-02-12T05:30:20.774Z,6.60
2023-02-12T05:32:48.050Z,6.47
2023-02-12T05:35:16.004Z,6.26
2023-02-12T05:37:42.914Z,6.36
2023-02-12T05:40:10.350Z,6.18
2023-02-12T05:42:37.356Z,5.66
2023-02-12T05:45:04.590Z,5.96
2023-02-12T05:47:31.404Z,5.77
2023-02-12T05:49:58.370Z,6.49
2023-02-12T05:52:26.427Z,6.29
2023-02-12T05:54:53.330Z,6.17
2023-02-12T05:57:20.194Z,5.76
2023-02-12T05:59:46.970Z,5.72
2023-02-12T06:02:13.895Z,5.67
2023-02-12T06:04:40.778Z,5.94
2023-02-12T06:07:07.669Z,6.38
2023-02-12T06:09:37.600Z,6.13
2023-02-12T06:12:04.709Z,5.95
2023-02-12T06:14:32.750Z,5.88
2023-02-12T06:16:59.788Z,5.92
2023-02-12T06:19:26.760Z,6.04
2023-02-12T06:21:53.772Z,5.89
2023-02-12T06:24:20.670Z,5.91
2023-02-12T06:26:51.019Z,5.83
2023-02-12T06:29:22.134Z,6.02
2023-02-12T06:31:53.420Z,6.11
2023-02-12T06:34:22.565Z,6.10
2023-02-12T06:36:50.658Z,6.18
2023-02-12T06:39:19.673Z,6.51
2023-02-12T06:41:47.078Z,6.74
2023-02-12T06:44:15.009Z,7.32
2023-02-12T06:46:43.266Z,7.30
2023-02-12T06:49:12.735Z,8.07
2023-02-12T06:51:41.724Z,7.99
2023-02-12T06:54:19.842Z,8.38
2023-02-12T06:56:58.221Z,8.28
2023-02-12T06:59:33.774Z,8.67
2023-02-12T07:02:01.113Z,9.30
2023-02-12T07:04:36.240Z,9.59
2023-02-12T07:07:08.190Z,9.15
2023-02-12T07:09:35.384Z,10.49
2023-02-12T07:12:02.387Z,10.05
2023-02-12T07:14:29.652Z,9.75
2023-02-12T07:16:57.544Z,8.89
2023-02-12T07:19:27.752Z,9.29
2023-02-12T07:21:54.855Z,8.46
2023-02-12T07:24:22.605Z,8.28
2023-02-12T07:26:51.101Z,7.74
2023-02-12T07:29:18.629Z,7.69
2023-02-12T07:31:45.783Z,7.86
2023-02-12T07:34:13.071Z,8.07
2023-02-12T07:36:40.815Z,7.60
2023-02-12T07:39:07.989Z,7.48
2023-02-12T07:41:36.674Z,7.00
2023-02-12T07:44:07.861Z,7.34
2023-02-12T07:46:38.335Z,7.31
2023-02-12T07:49:06.844Z,7.47
2023-02-12T07:51:36.601Z,7.44
2023-02-12T07:54:04.655Z,7.38
2023-02-12T07:56:35.775Z,7.76
2023-02-12T07:59:15.537Z,7.97
2023-02-12T08:01:54.025Z,8.13
2023-02-12T08:04:24.400Z,8.60
2023-02-12T08:06:54.520Z,8.89
2023-02-12T08:09:25.668Z,8.66
2023-02-12T08:11:53.000Z,8.39
2023-02-12T08:14:23.154Z,7.93
2023-02-12T08:16:51.536Z,8.25
2023-02-12T08:19:22.717Z,8.22
2023-02-12T08:21:53.177Z,8.27
2023-02-12T08:24:20.234Z,8.20
2023-02-12T08:26:47.161Z,8.25
2023-02-12T08:29:17.964Z,8.01
2023-02-12T08:31:47.665Z,8.39
2023-02-12T08:34:18.247Z,8.20
2023-02-12T08:36:46.692Z,8.41
2023-02-12T08:39:16.118Z,8.47
2023-02-12T08:41:48.562Z,8.83
2023-02-12T08:44:16.283Z,9.60
2023-02-12T08:46:48.868Z,8.97
2023-02-12T08:49:18.294Z,8.80
2023-02-12T08:51:49.059Z,9.19
2023-02-12T08:54:21.594Z,9.22
2023-02-12T08:56:48.516Z,9.03
2023-02-12T08:59:16.706Z,9.30
2023-02-12T09:01:44.437Z,9.31
2023-02-12T09:04:18.134Z,9.16
2023-02-12T09:06:46.467Z,9.19
2023-02-12T09:09:14.309Z,9.20
2023-02-12T09:11:42.029Z,8.64
2023-02-12T09:14:12.451Z,9.04
2023-02-12T09:16:42.539Z,8.85
2023-02-12T09:19:13.212Z,9.13
2023-02-12T09:21:41.394Z,9.45
2023-02-12T09:24:08.976Z,9.71
2023-02-12T09:26:36.121Z,10.28
2023-02-12T09:29:05.575Z,10.07
2023-02-12T09:31:33.774Z,9.33
2023-02-12T09:34:03.805Z,9.99
2023-02-12T09:36:31.692Z,9.40
2023-02-12T09:38:59.921Z,9.15
2023-02-12T09:41:39.347Z,9.35
2023-02-12T09:44:18.139Z,9.52
2023-02-12T09:46:49.612Z,10.04
2023-02-12T09:49:26.890Z,10.37
2023-02-12T09:51:55.399Z,9.64
2023-02-12T09:54:34.547Z,10.10
2023-02-12T09:57:04.969Z,10.31
2023-02-12T09:59:47.713Z,10.14
2023-02-12T10:02:16.237Z,9.91
2023-02-12T10:04:59.804Z,10.17
2023-02-12T10:07:40.594Z,10.20
2023-02-12T10:10:42.911Z,10.92
2023-02-12T10:13:35.464Z,10.59
2023-02-12T10:16:26.068Z,10.36
2023-02-12T10:19:22.463Z,10.02
2023-02-12T10:22:33.932Z,9.54
2023-02-12T10:25:18.568Z,9.80
2023-02-12T10:27:55.250Z,10.01
2023-02-12T10:30:31.441Z,9.84
2023-02-12T10:33:08.149Z,10.13
2023-02-12T10:35:35.793Z,10.14
2023-02-12T10:38:08.066Z,10.17
2023-02-12T10:40:38.550Z,10.43
2023-02-12T10:43:05.520Z,10.33
2023-02-12T10:45:33.727Z,10.72
2023-02-12T10:48:10.943Z,10.78
2023-02-12T10:50:59.676Z,10.53
2023-02-12T10:53:33.982Z,11.01
2023-02-12T10:56:19.014Z,10.60
2023-02-12T10:58:55.420Z,11.22
2023-02-12T11:01:33.555Z,11.34
2023-02-12T11:04:19.949Z,11.40
2023-02-12T11:06:59.780Z,10.93
2023-02-12T11:09:53.967Z,11.43
2023-02-12T11:12:43.723Z,11.87
2023-02-12T11:15:15.183Z,11.63
2023-02-12T11:17:45.600Z,11.19
2023-02-12T11:20:18.702Z,12.21
2023-02-12T11:22:58.306Z,12.60
2023-02-12T11:25:29.210Z,12.75
2023-02-12T11:28:05.447Z,12.61
2023-02-12T11:30:33.415Z,12.34
2023-02-12T11:33:22.171Z,11.28
2023-02-12T11:35:52.056Z,11.75
2023-02-12T11:38:23.762Z,11.29
2023-02-12T11:40:56.828Z,12.00
2023-02-12T11:43:25.279Z,11.63
2023-02-12T11:45:56.553Z,11.92
2023-02-12T11:48:27.869Z,11.81
2023-02-12T11:50:58.224Z,11.69
2023-02-12T11:53:33.643Z,12.21
2023-02-12T11:56:10.405Z,12.03
2023-02-12T11:58:39.433Z,12.31
2023-02-12T12:01:19.670Z,12.05
2023-02-12T12:04:05.505Z,13.00
2023-02-12T12:07:17.774Z,12.19
2023-02-12T12:10:25.981Z,12.02
2023-02-12T12:13:17.790Z,12.10
2023-02-12T12:16:15.432Z,11.30
2023-02-12T12:19:07.685Z,10.93
2023-02-12T12:21:40.210Z,11.02
2023-02-12T12:24:35.041Z,11.25
2023-02-12T12:27:35.771Z,10.95
2023-02-12T12:30:11.935Z,11.34
2023-02-12T12:32:48.495Z,11.70
2023-02-12T12:36:18.809Z,11.71
2023-02-12T12:38:58.040Z,12.04
2023-02-12T12:41:36.582Z,12.36
2023-02-12T12:44:52.230Z,12.23
2023-02-12T12:47:54.977Z,11.87
2023-02-12T12:50:54.695Z,12.17
2023-02-12T12:53:53.594Z,12.09
2023-02-12T12:56:34.718Z,12.35
2023-02-12T12:59:38.617Z,11.96
2023-02-12T13:02:41.634Z,11.33
2023-02-12T13:05:23.707Z,11.14
2023-02-12T13:08:14.509Z,11.29
2023-02-12T13:10:51.317Z,10.82
2023-02-12T13:13:21.390Z,10.67
2023-02-12T13:15:53.940Z,10.63
2023-02-12T13:18:29.531Z,10.79
2023-02-12T13:20:56.348Z,10.89
2023-02-12T13:23:45.647Z,11.21
2023-02-12T13:26:40.831Z,10.96
2023-02-12T13:29:17.174Z,10.81
2023-02-12T13:32:02.012Z,11.23
2023-02-12T13:34:34.738Z,11.06
2023-02-12T13:37:04.686Z,10.80
2023-02-12T13:39:43.489Z,11.30
2023-02-12T13:42:43.497Z,12.16
2023-02-12T13:45:25.615Z,11.64
2023-02-12T13:48:23.394Z,11.59
2023-02-12T13:51:21.948Z,11.24
2023-02-12T13:54:13.913Z,11.86
2023-02-12T13:57:08.676Z,11.41
2023-02-12T13:59:35.656Z,11.82
2023-02-12T14:02:05.965Z,11.82
2023-02-12T14:04:34.205Z,12.18
2023-02-12T14:07:10.212Z,11.82
2023-02-12T14:09:50.463Z,12.07
2023-02-12T14:12:26.620Z,11.48
2023-02-12T14:15:07.900Z,10.99
2023-02-12T14:17:34.737Z,11.11
2023-02-12T14:20:23.206Z,11.59
2023-02-12T14:22:50.341Z,11.12
2023-02-12T14:25:17.149Z,11.36
2023-02-12T14:27:59.635Z,11.13
2023-02-12T14:30:26.980Z,10.63
2023-02-12T14:33:09.561Z,10.99
2023-02-12T14:35:37.881Z,11.42
2023-02-12T14:38:18.119Z,10.97
2023-02-12T14:40:47.502Z,10.41
2023-02-12T14:43:32.158Z,10.84
2023-02-12T14:46:19.230Z,11.35
2023-02-12T14:48:56.105Z,11.51
2023-02-12T14:51:36.596Z,11.48
2023-02-12T14:54:12.313Z,11.15
2023-02-12T14:56:47.816Z,10.88
2023-02-12T14:59:21.304Z,10.81
2023-02-12T15:01:50.496Z,10.57
2023-02-12T15:04:29.091Z,11.11
2023-02-12T15:06:59.147Z,11.07
2023-02-12T15:09:41.961Z,11.11
2023-02-12T15:12:20.226Z,11.13
2023-02-12T15:14:56.359Z,10.91
2023-02-12T15:17:30.103Z,11.53
2023-02-12T15:20:03.027Z,11.67
2023-02-12T15:22:38.309Z,11.89
2023-02-12T15:25:43.902Z,11.22
2023-02-12T15:28:36.520Z,11.51
2023-02-12T15:31:09.930Z,11.56
2023-02-12T15:33:41.811Z,11.41
2023-02-12T15:36:11.464Z,11.03
2023-02-12T15:38:44.070Z,11.35
2023-02-12T15:41:26.653Z,11.91
2023-02-12T15:43:53.581Z,11.80
2023-02-12T15:46:21.367Z,11.35
2023-02-12T15:48:48.466Z,11.23
2023-02-12T15:51:35.914Z,11.21
2023-02-12T15:54:08.789Z,11.23
2023-02-12T15:56:41.345Z,11.03
2023-02-12T15:59:20.147Z,11.58
2023-02-12T16:02:00.694Z,11.47
2023-02-12T16:04:31.507Z,11.24
2023-02-12T16:07:00.415Z,10.40
2023-02-12T16:09:28.963Z,10.94
2023-02-12T16:11:58.567Z,11.11
2023-02-12T16:14:48.882Z,11.20
2023-02-12T16:17:34.766Z,11.05
2023-02-12T16:20:22.977Z,11.41
2023-02-12T16:22:52.709Z,11.58
2023-02-12T16:25:26.734Z,11.32
2023-02-12T16:28:00.012Z,11.57
2023-02-12T16:30:33.616Z,11.33
2023-02-12T16:33:03.554Z,11.21
2023-02-12T16:35:32.242Z,11.21
2023-02-12T16:38:03.064Z,11.26
2023-02-12T16:40:33.901Z,11.31
2023-02-12T16:43:04.715Z,11.54
2023-02-12T16:45:40.151Z,11.61
2023-02-12T16:48:09.128Z,11.68
2023-02-12T16:50:43.738Z,11.83
2023-02-12T16:53:47.546Z,11.55
2023-02-12T16:56:18.486Z,11.65
2023-02-12T16:58:47.135Z,11.60
2023-02-12T17:01:25.416Z,11.63
2023-02-12T17:03:53.656Z,11.36
2023-02-12T17:06:23.393Z,11.29
2023-02-12T17:08:50.888Z,11.16
2023-02-12T17:11:18.769Z,10.50
2023-02-12T17:13:49.998Z,10.61
2023-02-12T17:16:29.702Z,10.33
2023-02-12T17:18:58.017Z,11.02
2023-02-12T17:21:38.209Z,10.62
2023-02-12T17:24:15.490Z,10.91
2023-02-12T17:26:42.436Z,10.91
2023-02-12T17:29:09.342Z,11.06
2023-02-12T17:31:37.834Z,11.20
2023-02-12T17:34:05.883Z,11.12
2023-02-12T17:36:33.477Z,11.07
2023-02-12T17:39:01.498Z,11.12
2023-02-12T17:41:28.409Z,11.15
2023-02-12T17:43:56.408Z,11.13
2023-02-12T17:46:25.444Z,11.09
2023-02-12T17:48:52.412Z,11.18
2023-02-12T17:51:20.122Z,10.59
2023-02-12T17:53:47.408Z,10.91
2023-02-12T17:56:20.488Z,10.83
2023-02-12T17:58:48.362Z,10.99
2023-02-12T18:01:18.378Z,10.89
2023-02-12T18:03:45.839Z,10.91
2023-02-12T18:06:16.744Z,10.89
2023-02-12T18:08:43.734Z,10.94
2023-02-12T18:11:12.514Z,10.92
2023-02-12T18:13:39.720Z,10.97
2023-02-12T18:16:08.563Z,10.88
2023-02-12T18:18:36.692Z,10.83
2023-02-12T18:21:09.123Z,10.82
2023-02-12T18:23:36.674Z,10.70
2023-02-12T18:26:12.880Z,10.72
2023-02-12T18:28:39.994Z,10.67
2023-02-12T18:31:07.623Z,10.45
2023-02-12T18:33:35.681Z,10.64
2023-02-12T18:36:08.943Z,10.61
2023-02-12T18:38:37.735Z,10.54
2023-02-12T18:41:14.621Z,10.47
2023-02-12T18:43:43.399Z,10.35
2023-02-12T18:46:14.223Z,10.45
2023-02-12T18:48:41.597Z,10.52
2023-02-12T18:51:10.933Z,10.58
2023-02-12T18:53:38.127Z,10.48
2023-02-12T18:56:07.001Z,10.47
2023-02-12T18:58:34.343Z,10.29
2023-02-12T19:01:01.968Z,9.97
2023-02-12T19:03:28.976Z,10.05
2023-02-12T19:06:04.186Z,10.10
2023-02-12T19:08:31.460Z,10.08
2023-02-12T19:10:58.730Z,10.16
2023-02-12T19:13:25.907Z,10.09
2023-02-12T19:15:53.154Z,9.91
2023-02-12T19:18:20.149Z,10.16
2023-02-12T19:20:47.038Z,9.89
2023-02-12T19:23:14.036Z,9.96
2023-02-12T19:25:43.559Z,9.74
2023-02-12T19:28:11.450Z,9.75
2023-02-12T19:30:40.630Z,9.55
2023-02-12T19:33:07.980Z,9.72
2023-02-12T19:35:37.231Z,9.78
2023-02-12T19:38:04.241Z,9.69
2023-02-12T19:40:32.550Z,9.77
2023-02-12T19:42:59.509Z,9.65
2023-02-12T19:45:26.535Z,9.83
2023-02-12T19:47:53.418Z,9.75
2023-02-12T19:50:20.456Z,9.53
2023-02-12T19:52:47.361Z,9.41
2023-02-12T19:55:14.347Z,8.74
2023-02-12T19:57:41.468Z,8.92
2023-02-12T20:00:09.255Z,9.03
2023-02-12T20:02:36.422Z,9.05
2023-02-12T20:05:03.304Z,9.10
2023-02-12T20:07:31.409Z,9.22
2023-02-12T20:09:58.290Z,9.19
2023-02-12T20:12:25.207Z,8.72
2023-02-12T20:14:54.823Z,7.68
2023-02-12T20:17:21.782Z,7.56
2023-02-12T20:19:48.739Z,7.89
2023-02-12T20:22:15.681Z,7.76
2023-02-12T20:24:42.652Z,8.01
2023-02-12T20:27:11.237Z,8.44
2023-02-12T20:29:38.317Z,8.37
2023-02-12T20:32:05.427Z,8.50
2023-02-12T20:34:39.742Z,8.28
2023-02-12T20:37:17.403Z,8.28
2023-02-12T20:39:44.263Z,8.30
2023-02-12T20:42:12.158Z,8.28
2023-02-12T20:44:39.100Z,8.18
2023-02-12T20:47:05.961Z,7.92
2023-02-12T20:49:32.982Z,8.05
2023-02-12T20:51:59.880Z,7.84
2023-02-12T20:54:26.819Z,7.78
2023-02-12T20:56:53.760Z,7.70
2023-02-12T20:59:20.713Z,7.74
2023-02-12T21:01:48.207Z,7.70
2023-02-12T21:04:18.633Z,7.61
2023-02-12T21:06:46.102Z,7.69
2023-02-12T21:09:15.122Z,7.56
2023-02-12T21:11:45.764Z,7.43
2023-02-12T21:14:23.543Z,7.48
2023-02-12T21:16:52.422Z,6.98
2023-02-12T21:19:19.459Z,6.12
2023-02-12T21:21:46.729Z,6.62
2023-02-12T21:24:17.347Z,6.80
2023-02-12T21:26:44.756Z,6.75
2023-02-12T21:29:11.914Z,6.80
2023-02-12T21:31:43.884Z,6.73
2023-02-12T21:34:14.930Z,6.67
2023-02-12T21:36:45.344Z,6.79
2023-02-12T21:39:25.016Z,6.75
2023-02-12T21:41:54.963Z,6.68
2023-02-12T21:44:23.496Z,6.71
2023-02-12T21:46:50.876Z,6.82
2023-02-12T21:49:25.013Z,6.71
2023-02-12T21:51:54.527Z,6.76
2023-02-12T21:54:21.829Z,6.83
2023-02-12T21:56:49.895Z,6.32
2023-02-12T21:59:18.101Z,6.23
2023-02-12T22:01:48.651Z,6.50
2023-02-12T22:04:16.552Z,6.31
2023-02-12T22:06:46.373Z,6.46
2023-02-12T22:09:17.885Z,5.84
2023-02-12T22:11:45.304Z,4.91
2023-02-12T22:14:15.484Z,5.60
2023-02-12T22:16:42.890Z,5.63
2023-02-12T22:19:11.699Z,5.85
2023-02-12T22:21:41.400Z,5.49
2023-02-12T22:24:11.033Z,5.35
2023-02-12T22:26:38.050Z,5.29
2023-02-12T22:29:07.555Z,5.05
2023-02-12T22:31:37.537Z,4.54
2023-02-12T22:34:07.599Z,4.94
2023-02-12T22:36:36.283Z,4.56
2023-02-12T22:39:04.448Z,5.03
2023-02-12T22:41:31.410Z,5.46
2023-02-12T22:44:00.354Z,4.89
2023-02-12T22:46:29.122Z,4.57
2023-02-12T22:48:56.293Z,5.29
2023-02-12T22:51:26.466Z,5.44
2023-02-12T22:53:54.523Z,5.37
2023-02-12T22:56:21.867Z,5.68
2023-02-12T22:58:48.944Z,5.55
2023-02-12T23:01:18.493Z,5.17
2023-02-12T23:03:46.163Z,5.57
2023-02-12T23:06:19.690Z,5.47
2023-02-12T23:08:51.038Z,5.42
2023-02-12T23:11:18.552Z,5.63
2023-02-12T23:13:46.207Z,5.52
2023-02-12T23:16:13.368Z,5.66
2023-02-12T23:18:40.311Z,5.70
2023-02-12T23:21:07.354Z,5.85
2023-02-12T23:23:34.395Z,5.78
2023-02-12T23:26:01.491Z,5.50
2023-02-12T23:28:28.601Z,5.59
2023-02-12T23:30:55.712Z,5.14
2023-02-12T23:33:23.075Z,5.56
2023-02-12T23:35:50.306Z,5.46
2023-02-12T23:38:17.709Z,5.35
2023-02-12T23:40:44.773Z,4.83
2023-02-12T23:43:11.740Z,5.00
2023-02-12T23:45:38.798Z,4.91
2023-02-12T23:48:05.934Z,5.04
2023-02-12T23:50:32.986Z,4.73
2023-02-12T23:52:59.891Z,4.86
2023-02-12T23:55:26.811Z,4.77
2023-02-12T23:57:53.695Z,4.83
